Time;durP1;ratioP1;P1;durP2;ratioP2;P2;SDS_P1;SDS_P2;PMS_P1;PMS_P2;Temp;Humidity;BMP_temperature;BMP_pressure;BME280_temperature;BME280_humidity;BME280_pressure;Samples;Min_cycle;Max_cycle;Signal;HPM_P1;HPM_P2
2021/08/01 00:01:41;;;;;;;7.73;6.37;;;;;;;;;;732163;191;918568;-66
2021/08/01 00:04:07;;;;;;;12.77;6.60;;;;;;;;;;725874;191;919108;-67
2021/08/01 00:06:33;;;;;;;8.32;6.87;;;;;;;;;;726482;190;919384;-66
2021/08/01 00:08:59;;;;;;;9.07;6.90;;;;;;;;;;730190;192;919656;-66
2021/08/01 00:11:25;;;;;;;10.53;7.53;;;;;;;;;;726722;191;919779;-67
2021/08/01 00:13:51;;;;;;;10.05;6.10;;;;;;;;;;725655;192;1021330;-68
2021/08/01 00:16:16;;;;;;;11.70;7.10;;;;;;;;;;725133;192;919383;-66
2021/08/01 00:18:42;;;;;;;16.73;7.47;;;;;;;;;;734364;187;921249;-66
2021/08/01 00:21:08;;;;;;;10.30;6.63;;;;;;;;;;725823;191;919256;-66
2021/08/01 00:23:34;;;;;;;8.70;7.13;;;;;;;;;;724848;193;919016;-66
2021/08/01 00:26:00;;;;;;;16.23;7.47;;;;;;;;;;732491;192;919411;-67
2021/08/01 00:28:26;;;;;;;10.53;7.03;;;;;;;;;;725144;192;920045;-67
2021/08/01 00:30:51;;;;;;;10.97;6.70;;;;;;;;;;726860;193;919163;-66
2021/08/01 00:33:18;;;;;;;12.57;7.33;;;;;;;;;;729850;192;919721;-66
2021/08/01 00:35:44;;;;;;;12.10;7.70;;;;;;;;;;728373;191;919653;-66
2021/08/01 00:38:11;;;;;;;8.13;6.20;;;;;;;;;;728007;192;919119;-66
2021/08/01 00:40:38;;;;;;;14.20;8.47;;;;;;;;;;727990;191;919567;-65
2021/08/01 00:43:04;;;;;;;10.33;7.57;;;;;;;;;;727773;191;918474;-66
2021/08/01 00:45:30;;;;;;;18.20;9.33;;;;;;;;;;728508;192;919829;-65
2021/08/01 00:47:56;;;;;;;12.80;7.73;;;;;;;;;;727264;191;917828;-63
2021/08/01 00:50:22;;;;;;;30.77;9.73;;;;;;;;;;731921;191;916415;-65
2021/08/01 00:52:48;;;;;;;34.73;8.80;;;;;;;;;;727397;192;918733;-66
2021/08/01 00:55:14;;;;;;;23.57;9.90;;;;;;;;;;725657;191;919892;-64
2021/08/01 00:57:39;;;;;;;29.60;10.07;;;;;;;;;;733099;192;918360;-65
2021/08/01 01:00:06;;;;;;;16.83;10.70;;;;;;;;;;727616;192;921325;-63
2021/08/01 01:02:35;;;;;;;13.60;9.47;;;;;;;;;;726372;191;919252;-64
2021/08/01 01:05:00;;;;;;;17.37;10.50;;;;;;;;;;727099;191;918359;-65
2021/08/01 01:07:29;;;;;;;25.90;10.73;;;;;;;;;;734912;190;920130;-67
2021/08/01 01:10:00;;;;;;;15.90;9.50;;;;;;;;;;726300;190;918937;-67
2021/08/01 01:12:28;;;;;;;13.90;9.45;;;;;;;;;;726293;191;918237;-69
2021/08/01 01:14:54;;;;;;;19.83;10.40;;;;;;;;;;728423;192;919829;-68
2021/08/01 01:17:21;;;;;;;22.87;10.80;;;;;;;;;;727111;191;919425;-67
2021/08/01 01:19:53;;;;;;;17.20;10.23;;;;;;;;;;726305;191;919965;-66
2021/08/01 01:22:20;;;;;;;15.80;9.30;;;;;;;;;;726100;191;919331;-67
2021/08/01 01:24:47;;;;;;;16.30;9.43;;;;;;;;;;731347;191;919736;-68
2021/08/01 01:27:15;;;;;;;12.20;9.80;;;;;;;;;;727102;192;919191;-70
2021/08/01 01:29:44;;;;;;;13.53;10.13;;;;;;;;;;726445;190;919581;-68
2021/08/01 01:32:10;;;;;;;14.20;9.23;;;;;;;;;;724219;191;919211;-69
2021/08/01 01:34:47;;;;;;;13.70;9.03;;;;;;;;;;731252;192;920072;-67
2021/08/01 01:37:14;;;;;;;14.53;8.23;;;;;;;;;;730417;193;919353;-66
2021/08/01 01:39:40;;;;;;;12.13;9.43;;;;;;;;;;727987;191;918967;-66
2021/08/01 01:42:06;;;;;;;12.50;8.90;;;;;;;;;;726769;193;919365;-66
2021/08/01 01:44:32;;;;;;;12.83;8.90;;;;;;;;;;731495;192;918395;-65
2021/08/01 01:46:58;;;;;;;12.03;9.60;;;;;;;;;;729264;191;919170;-66
2021/08/01 01:49:23;;;;;;;12.50;8.00;;;;;;;;;;727961;192;919424;-64
2021/08/01 01:51:49;;;;;;;11.60;6.77;;;;;;;;;;734040;192;918575;-66
2021/08/01 01:54:15;;;;;;;15.87;9.80;;;;;;;;;;729445;191;919977;-65
2021/08/01 01:56:41;;;;;;;16.60;8.20;;;;;;;;;;730687;192;657644;-65
2021/08/01 01:59:07;;;;;;;9.47;7.10;;;;;;;;;;731416;192;617848;-65
2021/08/01 02:01:35;;;;;;;13.40;9.13;;;;;;;;;;730852;193;624572;-66
2021/08/01 02:03:59;;;;;;;13.00;8.03;;;;;;;;;;732755;192;627495;-65
2021/08/01 02:06:25;;;;;;;11.60;8.03;;;;;;;;;;731606;191;623299;-65
2021/08/01 02:08:56;;;;;;;13.50;7.17;;;;;;;;;;735817;189;625842;-67
2021/08/01 02:11:22;;;;;;;13.00;8.10;;;;;;;;;;732672;190;623400;-66
2021/08/01 02:13:48;;;;;;;12.07;8.53;;;;;;;;;;727940;191;919529;-65
2021/08/01 02:16:14;;;;;;;13.23;7.40;;;;;;;;;;726767;192;919137;-66
2021/08/01 02:18:49;;;;;;;13.13;8.70;;;;;;;;;;734494;188;918765;-67
2021/08/01 02:21:16;;;;;;;8.37;7.47;;;;;;;;;;727677;192;919874;-66
2021/08/01 02:23:43;;;;;;;14.23;9.63;;;;;;;;;;726191;191;919896;-66
2021/08/01 02:26:10;;;;;;;11.50;8.50;;;;;;;;;;728276;191;920726;-64
2021/08/01 02:28:37;;;;;;;12.70;7.87;;;;;;;;;;725401;192;918870;-66
2021/08/01 02:31:04;;;;;;;14.33;8.53;;;;;;;;;;725069;191;919565;-67
2021/08/01 02:33:30;;;;;;;12.27;7.63;;;;;;;;;;727123;192;919237;-66
2021/08/01 02:35:56;;;;;;;11.57;8.47;;;;;;;;;;730198;193;919314;-67
2021/08/01 02:38:22;;;;;;;10.50;7.50;;;;;;;;;;727106;192;918494;-66
2021/08/01 02:40:48;;;;;;;11.73;7.70;;;;;;;;;;728088;193;919539;-66
2021/08/01 02:43:14;;;;;;;12.97;9.47;;;;;;;;;;731231;192;919454;-66
2021/08/01 02:45:39;;;;;;;13.60;9.50;;;;;;;;;;727044;192;919910;-66
2021/08/01 02:48:05;;;;;;;15.63;9.87;;;;;;;;;;726640;192;918059;-67
2021/08/01 02:50:31;;;;;;;13.53;10.07;;;;;;;;;;726415;193;920188;-65
2021/08/01 02:52:58;;;;;;;14.45;10.18;;;;;;;;;;736649;190;919459;-67
2021/08/01 02:55:24;;;;;;;13.27;10.00;;;;;;;;;;724625;193;927679;-66
2021/08/01 02:57:50;;;;;;;14.20;9.37;;;;;;;;;;725609;192;1018612;-66
2021/08/01 03:00:16;;;;;;;13.87;10.03;;;;;;;;;;729541;191;917299;-66
2021/08/01 03:02:41;;;;;;;13.50;9.63;;;;;;;;;;725034;192;918861;-66
2021/08/01 03:05:08;;;;;;;12.83;9.80;;;;;;;;;;725481;190;918737;-67
2021/08/01 03:07:33;;;;;;;14.97;9.97;;;;;;;;;;732288;191;919614;-66
2021/08/01 03:09:59;;;;;;;13.03;9.63;;;;;;;;;;723393;192;918837;-66
2021/08/01 03:12:25;;;;;;;14.95;9.95;;;;;;;;;;726235;192;924418;-66
2021/08/01 03:14:51;;;;;;;13.73;9.10;;;;;;;;;;733067;191;916036;-65
2021/08/01 03:17:18;;;;;;;15.10;10.03;;;;;;;;;;725250;191;916267;-66
2021/08/01 03:19:44;;;;;;;10.47;9.23;;;;;;;;;;727021;191;916026;-66
2021/08/01 03:22:11;;;;;;;16.47;10.43;;;;;;;;;;727011;191;917903;-67
2021/08/01 03:24:38;;;;;;;15.30;10.37;;;;;;;;;;731560;191;915073;-66
2021/08/01 03:27:05;;;;;;;13.10;9.57;;;;;;;;;;726827;190;915126;-66
2021/08/01 03:29:31;;;;;;;14.97;10.33;;;;;;;;;;727224;191;921015;-67
2021/08/01 03:31:57;;;;;;;13.53;9.80;;;;;;;;;;731672;192;920154;-66
2021/08/01 03:34:23;;;;;;;12.60;9.83;;;;;;;;;;726834;191;929023;-66
2021/08/01 03:36:49;;;;;;;12.10;9.40;;;;;;;;;;725941;192;919303;-67
2021/08/01 03:39:14;;;;;;;13.33;10.30;;;;;;;;;;726723;192;910016;-67
2021/08/01 03:41:41;;;;;;;16.33;10.40;;;;;;;;;;734056;190;916953;-68
2021/08/01 03:44:06;;;;;;;13.57;10.07;;;;;;;;;;724938;192;1022471;-66
2021/08/01 03:46:32;;;;;;;14.00;10.53;;;;;;;;;;725539;191;918395;-65
2021/08/01 03:48:59;;;;;;;14.03;9.97;;;;;;;;;;731582;191;917742;-65
2021/08/01 03:51:25;;;;;;;15.37;10.97;;;;;;;;;;724921;191;919078;-65
2021/08/01 03:53:51;;;;;;;15.10;9.73;;;;;;;;;;725562;191;919759;-66
2021/08/01 03:56:16;;;;;;;17.30;11.07;;;;;;;;;;730713;192;916672;-66
2021/08/01 03:58:42;;;;;;;19.10;9.67;;;;;;;;;;724999;190;919589;-65
2021/08/01 04:01:08;;;;;;;13.13;10.73;;;;;;;;;;727784;191;920945;-66
2021/08/01 04:03:34;;;;;;;13.80;11.15;;;;;;;;;;728092;191;948847;-66
2021/08/01 04:06:00;;;;;;;13.23;10.10;;;;;;;;;;728799;192;915397;-67
2021/08/01 04:08:27;;;;;;;22.07;9.83;;;;;;;;;;725418;191;919709;-66
2021/08/01 04:10:53;;;;;;;13.15;9.75;;;;;;;;;;726862;191;1025876;-65
2021/08/01 04:13:20;;;;;;;15.97;10.47;;;;;;;;;;732419;191;919017;-67
2021/08/01 04:15:47;;;;;;;13.40;8.77;;;;;;;;;;728210;191;925552;-66
2021/08/01 04:18:14;;;;;;;14.27;10.52;;;;;;;;;;727264;192;919956;-65
2021/08/01 04:20:41;;;;;;;13.53;9.90;;;;;;;;;;732647;191;935522;-66
2021/08/01 04:23:07;;;;;;;15.20;10.30;;;;;;;;;;725535;191;912376;-65
2021/08/01 04:25:33;;;;;;;15.30;11.57;;;;;;;;;;726655;189;917797;-66
2021/08/01 04:27:59;;;;;;;13.07;10.57;;;;;;;;;;730411;190;920158;-67
2021/08/01 04:30:24;;;;;;;14.10;11.00;;;;;;;;;;733188;191;912867;-65
2021/08/01 04:32:50;;;;;;;13.70;10.67;;;;;;;;;;725453;190;921048;-66
2021/08/01 04:35:16;;;;;;;16.17;11.77;;;;;;;;;;726177;191;912884;-65
2021/08/01 04:37:42;;;;;;;13.33;11.07;;;;;;;;;;730511;191;920641;-66
2021/08/01 04:40:08;;;;;;;16.53;10.70;;;;;;;;;;725961;192;919182;-65
2021/08/01 04:42:34;;;;;;;16.43;11.60;;;;;;;;;;725398;190;915240;-66
2021/08/01 04:45:00;;;;;;;18.30;12.13;;;;;;;;;;733896;191;918337;-66
2021/08/01 04:47:26;;;;;;;17.13;10.87;;;;;;;;;;726757;191;920440;-65
2021/08/01 04:49:52;;;;;;;16.50;12.57;;;;;;;;;;727040;191;920094;-66
2021/08/01 04:52:18;;;;;;;19.00;12.10;;;;;;;;;;726686;191;919807;-65
2021/08/01 04:54:43;;;;;;;18.63;12.20;;;;;;;;;;733101;190;918855;-65
2021/08/01 04:57:09;;;;;;;18.87;11.67;;;;;;;;;;726391;193;919186;-66
2021/08/01 04:59:35;;;;;;;19.10;12.50;;;;;;;;;;727042;191;915110;-64
2021/08/01 05:02:01;;;;;;;15.00;10.77;;;;;;;;;;730891;193;914260;-66
2021/08/01 05:04:27;;;;;;;16.27;12.50;;;;;;;;;;726210;192;919260;-65
2021/08/01 05:06:52;;;;;;;14.53;10.60;;;;;;;;;;727350;190;917334;-66
2021/08/01 05:09:18;;;;;;;11.27;9.67;;;;;;;;;;731685;192;919075;-65
2021/08/01 05:11:44;;;;;;;18.03;11.10;;;;;;;;;;726818;192;976522;-66
2021/08/01 05:14:10;;;;;;;17.50;11.87;;;;;;;;;;724751;191;920548;-66
2021/08/01 05:16:36;;;;;;;16.83;11.80;;;;;;;;;;728797;193;1020442;-65
2021/08/01 05:19:02;;;;;;;15.57;11.40;;;;;;;;;;725385;192;919991;-65
2021/08/01 05:21:28;;;;;;;18.53;11.70;;;;;;;;;;726219;191;919920;-66
2021/08/01 05:23:53;;;;;;;17.97;13.57;;;;;;;;;;728539;191;919173;-65
2021/08/01 05:26:19;;;;;;;16.57;13.63;;;;;;;;;;731612;191;920388;-64
2021/08/01 05:28:45;;;;;;;14.50;12.10;;;;;;;;;;728014;190;913945;-65
2021/08/01 05:31:11;;;;;;;16.63;12.10;;;;;;;;;;727105;191;920142;-65
2021/08/01 05:33:37;;;;;;;16.67;13.70;;;;;;;;;;731848;192;919752;-66
2021/08/01 05:36:04;;;;;;;15.20;13.60;;;;;;;;;;726131;192;919451;-67
2021/08/01 05:38:30;;;;;;;16.55;13.15;;;;;;;;;;726654;191;924829;-66
2021/08/01 05:40:56;;;;;;;17.40;13.20;;;;;;;;;;732167;191;919243;-66
2021/08/01 05:43:22;;;;;;;16.70;14.00;;;;;;;;;;726182;191;933870;-66
2021/08/01 05:45:48;;;;;;;14.57;11.93;;;;;;;;;;727195;192;919425;-66
2021/08/01 05:48:14;;;;;;;18.73;13.83;;;;;;;;;;728116;192;919488;-65
2021/08/01 05:50:40;;;;;;;22.37;13.53;;;;;;;;;;731925;191;884289;-65
2021/08/01 05:53:05;;;;;;;18.87;12.83;;;;;;;;;;726138;192;933154;-65
2021/08/01 05:55:31;;;;;;;15.00;12.40;;;;;;;;;;726609;192;921864;-65
2021/08/01 05:57:57;;;;;;;17.13;13.00;;;;;;;;;;731553;192;919107;-66
2021/08/01 06:00:23;;;;;;;18.83;12.37;;;;;;;;;;729149;191;1019072;-65
2021/08/01 06:02:49;;;;;;;18.00;11.63;;;;;;;;;;727031;191;918007;-66
2021/08/01 06:05:15;;;;;;;15.13;12.13;;;;;;;;;;730988;191;919238;-64
2021/08/01 06:07:40;;;;;;;15.10;12.20;;;;;;;;;;725745;192;920558;-64
2021/08/01 06:10:07;;;;;;;15.90;10.70;;;;;;;;;;725986;193;919339;-64
2021/08/01 06:12:32;;;;;;;14.17;10.70;;;;;;;;;;726679;192;928244;-64
2021/08/01 06:14:58;;;;;;;13.83;9.73;;;;;;;;;;726213;190;920032;-64
2021/08/01 06:17:24;;;;;;;12.30;10.20;;;;;;;;;;726610;190;919559;-65
2021/08/01 06:19:53;;;;;;;15.43;10.30;;;;;;;;;;726297;191;919028;-64
2021/08/01 06:22:19;;;;;;;13.97;9.57;;;;;;;;;;729719;193;919202;-63
2021/08/01 06:24:44;;;;;;;18.52;10.15;;;;;;;;;;726789;191;941406;-64
2021/08/01 06:27:10;;;;;;;16.20;10.80;;;;;;;;;;725475;190;921292;-64
2021/08/01 06:29:36;;;;;;;18.03;10.40;;;;;;;;;;731469;193;918342;-64
2021/08/01 06:32:02;;;;;;;22.23;9.80;;;;;;;;;;726543;191;919524;-64
2021/08/01 06:34:28;;;;;;;14.03;10.10;;;;;;;;;;726489;191;920244;-66
2021/08/01 06:36:54;;;;;;;17.17;10.17;;;;;;;;;;725866;191;1021066;-64
2021/08/01 06:39:20;;;;;;;13.20;10.37;;;;;;;;;;733624;186;918952;-62
2021/08/01 06:41:46;;;;;;;15.43;9.67;;;;;;;;;;722993;193;925201;-65
2021/08/01 06:44:11;;;;;;;15.57;10.00;;;;;;;;;;724523;191;918836;-62
2021/08/01 06:46:37;;;;;;;13.00;9.80;;;;;;;;;;732065;190;920669;-63
2021/08/01 06:49:03;;;;;;;14.83;10.40;;;;;;;;;;725929;192;920007;-62
2021/08/01 06:51:29;;;;;;;17.48;11.70;;;;;;;;;;726985;191;920860;-63
2021/08/01 06:53:55;;;;;;;18.17;10.33;;;;;;;;;;730108;192;912029;-63
2021/08/01 06:56:21;;;;;;;18.63;9.53;;;;;;;;;;726093;192;919334;-63
2021/08/01 06:58:46;;;;;;;13.83;9.50;;;;;;;;;;724662;193;944718;-62
2021/08/01 07:01:12;;;;;;;14.75;10.30;;;;;;;;;;731366;192;920033;-64
2021/08/01 07:03:38;;;;;;;11.77;8.90;;;;;;;;;;727664;192;920056;-63
2021/08/01 07:06:04;;;;;;;14.30;9.30;;;;;;;;;;726665;191;925416;-62
2021/08/01 07:08:30;;;;;;;10.57;8.50;;;;;;;;;;725695;193;919011;-62
2021/08/01 07:10:56;;;;;;;10.57;8.23;;;;;;;;;;731193;190;893383;-62
2021/08/01 07:13:22;;;;;;;13.30;9.30;;;;;;;;;;725460;191;920088;-61
2021/08/01 07:15:48;;;;;;;14.77;10.20;;;;;;;;;;721434;191;919482;-62
2021/08/01 07:18:14;;;;;;;18.53;9.37;;;;;;;;;;730967;191;919865;-60
2021/08/01 07:20:40;;;;;;;14.77;8.95;;;;;;;;;;726886;192;920579;-61
2021/08/01 07:23:09;;;;;;;15.43;8.30;;;;;;;;;;726298;190;1020947;-61
2021/08/01 07:25:32;;;;;;;9.37;8.37;;;;;;;;;;729720;190;919516;-61
2021/08/01 07:27:57;;;;;;;15.27;8.70;;;;;;;;;;729021;191;919698;-62
2021/08/01 07:30:23;;;;;;;11.40;9.30;;;;;;;;;;726730;192;918992;-62
2021/08/01 07:32:49;;;;;;;9.43;8.40;;;;;;;;;;726848;193;919676;-61
2021/08/01 07:35:15;;;;;;;14.60;9.57;;;;;;;;;;737147;189;918270;-62
2021/08/01 07:37:41;;;;;;;11.50;8.77;;;;;;;;;;725846;191;919449;-62
2021/08/01 07:40:07;;;;;;;9.82;7.95;;;;;;;;;;726372;191;918668;-62
2021/08/01 07:42:33;;;;;;;11.67;8.70;;;;;;;;;;729731;191;920125;-62
2021/08/01 07:45:03;;;;;;;12.73;9.95;;;;;;;;;;726640;191;919984;-62
2021/08/01 07:47:27;;;;;;;12.43;9.40;;;;;;;;;;728999;191;919662;-61
2021/08/01 07:49:53;;;;;;;11.60;10.20;;;;;;;;;;733856;191;919226;-62
2021/08/01 07:52:19;;;;;;;13.73;10.47;;;;;;;;;;732121;191;621750;-62
2021/08/01 07:54:45;;;;;;;14.63;10.73;;;;;;;;;;730884;192;634906;-62
2021/08/01 07:57:16;;;;;;;11.13;9.10;;;;;;;;;;730577;192;634358;-62
2021/08/01 07:59:42;;;;;;;13.10;8.93;;;;;;;;;;731411;190;618119;-63
2021/08/01 08:02:08;;;;;;;12.87;9.43;;;;;;;;;;732086;191;614461;-62
2021/08/01 08:04:34;;;;;;;15.23;8.87;;;;;;;;;;728858;191;917797;-62
2021/08/01 08:06:59;;;;;;;23.13;10.30;;;;;;;;;;731593;192;918332;-65
2021/08/01 08:09:26;;;;;;;16.20;9.77;;;;;;;;;;727739;192;919134;-62
2021/08/01 08:11:51;;;;;;;12.57;9.17;;;;;;;;;;720982;192;1841087;-62
2021/08/01 08:14:17;;;;;;;14.10;11.10;;;;;;;;;;731746;190;919861;-62
2021/08/01 08:16:43;;;;;;;17.50;12.60;;;;;;;;;;728637;191;919970;-62
2021/08/01 08:19:09;;;;;;;19.40;11.00;;;;;;;;;;727424;192;918829;-62
2021/08/01 08:21:35;;;;;;;17.50;10.30;;;;;;;;;;727601;192;919372;-62
2021/08/01 08:24:00;;;;;;;14.03;10.53;;;;;;;;;;730605;191;919902;-62
2021/08/01 08:26:26;;;;;;;11.87;9.87;;;;;;;;;;727144;191;889966;-63
2021/08/01 08:28:52;;;;;;;12.27;8.67;;;;;;;;;;726398;192;919745;-64
2021/08/01 08:31:18;;;;;;;11.20;7.63;;;;;;;;;;731674;193;916992;-63
2021/08/01 08:33:44;;;;;;;10.23;9.17;;;;;;;;;;725571;192;917718;-63
2021/08/01 08:36:10;;;;;;;8.10;6.67;;;;;;;;;;726310;192;919245;-63
2021/08/01 08:38:36;;;;;;;10.33;9.17;;;;;;;;;;730788;192;918958;-64
2021/08/01 08:41:02;;;;;;;13.47;9.57;;;;;;;;;;726578;192;919416;-64
2021/08/01 08:43:27;;;;;;;11.18;9.00;;;;;;;;;;726164;192;920281;-64
2021/08/01 08:45:53;;;;;;;7.73;6.60;;;;;;;;;;727068;192;918149;-63
2021/08/01 08:48:19;;;;;;;7.53;6.50;;;;;;;;;;734452;190;952760;-63
2021/08/01 08:50:48;;;;;;;8.17;6.77;;;;;;;;;;724767;191;919281;-64
2021/08/01 08:53:14;;;;;;;8.10;6.40;;;;;;;;;;725828;191;917466;-64
2021/08/01 08:55:40;;;;;;;7.97;6.53;;;;;;;;;;731514;192;917577;-63
2021/08/01 08:58:05;;;;;;;6.12;5.53;;;;;;;;;;728474;191;921884;-63
2021/08/01 09:00:31;;;;;;;7.33;5.53;;;;;;;;;;729609;189;954346;-63
2021/08/01 09:02:57;;;;;;;6.27;5.33;;;;;;;;;;729384;191;917503;-63
2021/08/01 09:05:23;;;;;;;6.30;5.57;;;;;;;;;;727945;191;923422;-63
2021/08/01 09:07:49;;;;;;;7.40;5.13;;;;;;;;;;726461;192;918674;-64
2021/08/01 09:10:15;;;;;;;5.53;4.17;;;;;;;;;;727296;192;919576;-63
2021/08/01 09:12:51;;;;;;;7.30;4.73;;;;;;;;;;736540;190;919647;-63
2021/08/01 09:15:16;;;;;;;6.18;4.80;;;;;;;;;;730109;192;918817;-62
2021/08/01 09:17:41;;;;;;;8.23;5.00;;;;;;;;;;726137;192;918605;-62
2021/08/01 09:20:11;;;;;;;5.62;4.28;;;;;;;;;;731309;190;922193;-63
2021/08/01 09:22:37;;;;;;;8.00;5.50;;;;;;;;;;732091;190;918789;-64
2021/08/01 09:25:04;;;;;;;6.30;5.10;;;;;;;;;;727469;191;892469;-62
2021/08/01 09:27:30;;;;;;;5.57;3.90;;;;;;;;;;724241;192;920221;-65
2021/08/01 09:29:56;;;;;;;7.17;4.13;;;;;;;;;;731375;192;919081;-62
2021/08/01 09:32:22;;;;;;;6.37;4.37;;;;;;;;;;725588;190;919731;-63
2021/08/01 09:34:48;;;;;;;7.63;4.30;;;;;;;;;;725462;193;919881;-64
2021/08/01 09:37:13;;;;;;;10.57;3.77;;;;;;;;;;732221;192;918908;-64
2021/08/01 09:39:40;;;;;;;5.70;4.30;;;;;;;;;;725174;190;920029;-65
2021/08/01 09:42:06;;;;;;;6.00;4.83;;;;;;;;;;725978;190;920455;-66
2021/08/01 09:44:32;;;;;;;6.50;5.07;;;;;;;;;;726754;191;914704;-65
2021/08/01 09:46:58;;;;;;;5.90;5.20;;;;;;;;;;729865;190;919755;-66
2021/08/01 09:49:23;;;;;;;6.87;4.97;;;;;;;;;;728013;192;921145;-66
2021/08/01 09:51:49;;;;;;;7.23;5.00;;;;;;;;;;726236;191;1022407;-66
2021/08/01 09:54:15;;;;;;;8.30;5.10;;;;;;;;;;731832;192;911481;-67
2021/08/01 09:56:56;;;;;;;7.07;4.70;;;;;;;;;;727163;190;986819;-65
2021/08/01 09:59:22;;;;;;;5.70;4.53;;;;;;;;;;726033;191;919732;-67
2021/08/01 10:01:50;;;;;;;6.97;4.73;;;;;;;;;;725968;191;928670;-68
2021/08/01 10:04:22;;;;;;;5.70;4.30;;;;;;;;;;730875;191;916806;-66
2021/08/01 10:06:47;;;;;;;8.80;5.33;;;;;;;;;;735102;191;617698;-67
2021/08/01 10:09:13;;;;;;;6.80;5.50;;;;;;;;;;728610;190;910374;-66
2021/08/01 10:11:38;;;;;;;12.53;6.00;;;;;;;;;;730217;191;618460;-66
2021/08/01 10:14:04;;;;;;;7.07;5.30;;;;;;;;;;734766;192;636766;-66
2021/08/01 10:16:30;;;;;;;10.07;5.53;;;;;;;;;;729800;191;885081;-67
2021/08/01 10:18:56;;;;;;;6.70;5.47;;;;;;;;;;730587;192;622576;-65
2021/08/01 10:21:22;;;;;;;11.23;6.00;;;;;;;;;;731720;191;909748;-65
2021/08/01 10:23:48;;;;;;;9.87;6.47;;;;;;;;;;725987;189;905210;-67
2021/08/01 10:26:13;;;;;;;9.83;7.40;;;;;;;;;;727421;190;917393;-64
2021/08/01 10:28:40;;;;;;;9.23;8.10;;;;;;;;;;731417;191;908437;-64
2021/08/01 10:31:06;;;;;;;8.70;7.03;;;;;;;;;;733492;188;911710;-65
2021/08/01 10:33:32;;;;;;;9.97;7.60;;;;;;;;;;722405;193;915781;-65
2021/08/01 10:35:58;;;;;;;13.45;7.82;;;;;;;;;;727042;192;1017225;-65
2021/08/01 10:38:24;;;;;;;11.10;8.50;;;;;;;;;;730950;192;1003921;-65
2021/08/01 10:40:52;;;;;;;8.93;7.60;;;;;;;;;;727136;191;919828;-65
2021/08/01 10:43:16;;;;;;;10.60;7.50;;;;;;;;;;728020;190;918763;-65
2021/08/01 10:45:42;;;;;;;6.87;6.13;;;;;;;;;;733504;190;619592;-65
2021/08/01 10:48:08;;;;;;;10.10;7.07;;;;;;;;;;729239;190;919085;-65
2021/08/01 10:50:34;;;;;;;9.03;7.17;;;;;;;;;;726015;193;920349;-66
2021/08/01 10:53:05;;;;;;;9.80;7.10;;;;;;;;;;731517;192;919035;-67
2021/08/01 10:55:31;;;;;;;10.37;7.00;;;;;;;;;;732722;192;922643;-67
2021/08/01 10:58:13;;;;;;;6.63;5.83;;;;;;;;;;726993;192;918394;-64
2021/08/01 11:00:44;;;;;;;12.70;7.87;;;;;;;;;;728458;192;919347;-66
2021/08/01 11:03:16;;;;;;;11.13;7.10;;;;;;;;;;727219;191;919671;-65
2021/08/01 11:05:41;;;;;;;8.30;7.40;;;;;;;;;;726753;191;919167;-66
2021/08/01 11:08:07;;;;;;;9.07;7.90;;;;;;;;;;731243;191;920183;-64
2021/08/01 11:10:33;;;;;;;7.70;6.20;;;;;;;;;;726618;191;918969;-65
2021/08/01 11:12:59;;;;;;;7.80;6.10;;;;;;;;;;727716;190;919734;-64
2021/08/01 11:15:39;;;;;;;6.67;5.80;;;;;;;;;;731869;193;634748;-67
2021/08/01 11:18:05;;;;;;;7.20;5.80;;;;;;;;;;732548;192;919403;-64
2021/08/01 11:20:46;;;;;;;5.80;5.13;;;;;;;;;;728502;190;892475;-64
2021/08/01 11:23:12;;;;;;;6.80;5.10;;;;;;;;;;728729;191;919112;-63
2021/08/01 11:25:40;;;;;;;7.90;5.43;;;;;;;;;;720733;191;2250320;-64
2021/08/01 11:28:28;;;;;;;7.53;4.73;;;;;;;;;;731066;191;918805;-64
2021/08/01 11:31:06;;;;;;;11.43;5.43;;;;;;;;;;731287;191;919488;-63
2021/08/01 11:33:30;;;;;;;9.00;4.80;;;;;;;;;;730384;192;919535;-62
2021/08/01 11:36:02;;;;;;;5.03;4.23;;;;;;;;;;728670;192;920187;-63
2021/08/01 11:38:28;;;;;;;7.57;4.13;;;;;;;;;;727404;190;919216;-62
2021/08/01 11:40:54;;;;;;;4.43;3.70;;;;;;;;;;732521;190;639853;-61
2021/08/01 11:43:20;;;;;;;4.80;3.50;;;;;;;;;;732592;192;918994;-62
2021/08/01 11:45:48;;;;;;;4.87;3.00;;;;;;;;;;726841;191;918851;-61
2021/08/01 11:48:14;;;;;;;5.10;3.23;;;;;;;;;;725633;190;918315;-62
2021/08/01 11:50:40;;;;;;;4.43;3.17;;;;;;;;;;730680;192;919681;-61
2021/08/01 11:53:06;;;;;;;7.57;3.70;;;;;;;;;;729310;192;918839;-60
2021/08/01 11:55:32;;;;;;;4.27;3.13;;;;;;;;;;724774;192;919775;-61
2021/08/01 11:57:58;;;;;;;5.30;3.20;;;;;;;;;;727547;190;921457;-60
2021/08/01 12:00:24;;;;;;;4.53;3.20;;;;;;;;;;735722;189;920457;-62
2021/08/01 12:02:50;;;;;;;5.93;3.60;;;;;;;;;;727016;191;919778;-63
2021/08/01 12:05:16;;;;;;;4.30;3.40;;;;;;;;;;726135;190;919441;-62
2021/08/01 12:07:42;;;;;;;4.90;3.40;;;;;;;;;;732240;192;919629;-61
2021/08/01 12:10:12;;;;;;;5.50;2.63;;;;;;;;;;724100;192;920010;-61
2021/08/01 12:12:38;;;;;;;4.53;3.10;;;;;;;;;;725989;191;919578;-61
2021/08/01 12:15:04;;;;;;;4.37;2.90;;;;;;;;;;731320;193;920586;-61
2021/08/01 12:17:30;;;;;;;4.37;2.97;;;;;;;;;;726900;192;929501;-61
2021/08/01 12:19:56;;;;;;;4.50;3.53;;;;;;;;;;724926;190;918655;-60
2021/08/01 12:22:21;;;;;;;7.30;4.50;;;;;;;;;;724747;193;919492;-65
2021/08/01 12:24:48;;;;;;;8.33;3.10;;;;;;;;;;730708;192;919993;-62
2021/08/01 12:27:16;;;;;;;4.37;3.60;;;;;;;;;;725475;192;919542;-64
2021/08/01 12:29:42;;;;;;;4.07;3.30;;;;;;;;;;726316;191;921195;-61
2021/08/01 12:32:14;;;;;;;7.43;3.37;;;;;;;;;;731552;190;917364;-61
2021/08/01 12:34:40;;;;;;;7.13;3.63;;;;;;;;;;730977;191;919000;-63
2021/08/01 12:37:06;;;;;;;4.10;2.70;;;;;;;;;;727034;192;919821;-62
2021/08/01 12:39:32;;;;;;;4.43;3.13;;;;;;;;;;727567;192;919316;-61
2021/08/01 12:41:59;;;;;;;4.60;3.50;;;;;;;;;;732265;192;917845;-60
2021/08/01 12:44:25;;;;;;;6.27;2.40;;;;;;;;;;727055;192;1021769;-61
2021/08/01 12:46:51;;;;;;;5.27;3.13;;;;;;;;;;726261;192;919399;-61
2021/08/01 12:49:17;;;;;;;5.87;3.27;;;;;;;;;;732118;191;917253;-60
2021/08/01 12:51:43;;;;;;;3.70;2.90;;;;;;;;;;725252;192;920702;-61
2021/08/01 12:54:09;;;;;;;6.40;3.23;;;;;;;;;;727604;191;919940;-60
2021/08/01 12:56:34;;;;;;;5.82;2.85;;;;;;;;;;727849;192;919946;-59
2021/08/01 12:59:06;;;;;;;3.80;2.27;;;;;;;;;;733254;188;919086;-60
2021/08/01 13:01:32;;;;;;;4.65;3.40;;;;;;;;;;723725;191;1134174;-60
2021/08/01 13:03:58;;;;;;;3.87;2.47;;;;;;;;;;725717;192;935238;-62
2021/08/01 13:06:26;;;;;;;5.87;2.67;;;;;;;;;;730855;192;918464;-61
2021/08/01 13:08:52;;;;;;;3.97;3.00;;;;;;;;;;727190;193;919055;-62
2021/08/01 13:11:32;;;;;;;4.37;3.40;;;;;;;;;;726194;192;921235;-61
2021/08/01 13:13:57;;;;;;;3.67;2.95;;;;;;;;;;726758;190;919195;-60
2021/08/01 13:16:23;;;;;;;9.73;7.80;;;;;;;;;;731433;192;917029;-61
2021/08/01 13:18:49;;;;;;;6.50;4.27;;;;;;;;;;731141;192;643697;-61
2021/08/01 13:21:15;;;;;;;6.27;2.93;;;;;;;;;;728127;192;804860;-62
2021/08/01 13:23:41;;;;;;;5.63;4.00;;;;;;;;;;732873;192;670930;-62
2021/08/01 13:26:12;;;;;;;4.63;3.20;;;;;;;;;;733390;192;626736;-62
2021/08/01 13:28:44;;;;;;;4.30;3.43;;;;;;;;;;729701;193;645621;-63
2021/08/01 13:31:11;;;;;;;4.93;3.10;;;;;;;;;;728485;191;919154;-61
2021/08/01 13:33:36;;;;;;;4.50;3.00;;;;;;;;;;726540;191;918987;-63
2021/08/01 13:36:01;;;;;;;7.83;6.40;;;;;;;;;;731080;191;919904;-62
2021/08/01 13:38:27;;;;;;;5.50;4.10;;;;;;;;;;725798;191;985521;-62
2021/08/01 13:40:53;;;;;;;8.40;5.47;;;;;;;;;;725951;191;918672;-65
2021/08/01 13:43:20;;;;;;;7.43;4.22;;;;;;;;;;731810;191;920086;-67
2021/08/01 13:45:45;;;;;;;6.30;3.73;;;;;;;;;;726693;191;919684;-65
2021/08/01 13:48:11;;;;;;;6.07;3.60;;;;;;;;;;726823;191;947073;-63
2021/08/01 13:50:36;;;;;;;6.40;3.53;;;;;;;;;;731105;191;1175522;-62
2021/08/01 13:53:02;;;;;;;6.17;4.10;;;;;;;;;;727627;191;920033;-64
2021/08/01 13:55:28;;;;;;;6.30;4.37;;;;;;;;;;726377;191;921085;-61
2021/08/01 13:58:00;;;;;;;4.63;4.00;;;;;;;;;;727038;191;923641;-66
2021/08/01 14:00:26;;;;;;;7.87;4.63;;;;;;;;;;736865;190;919844;-64
2021/08/01 14:02:51;;;;;;;5.50;4.00;;;;;;;;;;724582;192;919699;-63
2021/08/01 14:05:17;;;;;;;4.87;4.10;;;;;;;;;;726433;191;919008;-64
2021/08/01 14:07:43;;;;;;;5.90;4.50;;;;;;;;;;731865;191;919505;-64
2021/08/01 14:10:09;;;;;;;6.40;4.10;;;;;;;;;;726477;191;929431;-64
2021/08/01 14:12:37;;;;;;;5.63;4.20;;;;;;;;;;723473;192;918666;-64
2021/08/01 14:15:08;;;;;;;6.50;4.67;;;;;;;;;;728182;190;917082;-63